sensor_id;sensor_type;location;lat;lon;timestamp;P1;durP1;ratioP1;P2;durP2;ratioP2
15297;SDS011;7750;48.796;9.026;2023-03-20T00:00:02;5.83;;;3.30;;
15297;SDS011;7750;48.796;9.026;2023-03-20T00:05:14;3.37;;;3.00;;
15297;SDS011;7750;48.796;9.026;2023-03-20T00:10:18;4.93;;;3.30;;
15297;SDS011;7750;48.796;9.026;2023-03-20T00:20:26;3.27;;;2.83;;
15297;SDS011;7750;48.796;9.026;2023-03-20T00:25:30;3.70;;;2.70;;
15297;SDS011;7750;48.796;9.026;2023-03-20T00:30:31;2.93;;;2.40;;
15297;SDS011;7750;48.796;9.026;2023-03-20T00:35:35;3.70;;;2.77;;
15297;SDS011;7750;48.796;9.026;2023-03-20T00:40:36;3.63;;;2.23;;
15297;SDS011;7750;48.796;9.026;2023-03-20T00:45:36;2.60;;;2.37;;
15297;SDS011;7750;48.796;9.026;2023-03-20T00:50:37;2.20;;;2.00;;
15297;SDS011;7750;48.796;9.026;2023-03-20T00:55:39;4.00;;;2.50;;
15297;SDS011;7750;48.796;9.026;2023-03-20T01:00:43;2.70;;;2.50;;
15297;SDS011;7750;48.796;9.026;2023-03-20T01:05:45;3.93;;;2.70;;
15297;SDS011;7750;48.796;9.026;2023-03-20T01:10:47;3.00;;;2.20;;
15297;SDS011;7750;48.796;9.026;2023-03-20T01:15:50;2.20;;;2.00;;
15297;SDS011;7750;48.796;9.026;2023-03-20T01:20:52;2.90;;;2.17;;
15297;SDS011;7750;48.796;9.026;2023-03-20T01:25:53;2.53;;;1.80;;
15297;SDS011;7750;48.796;9.026;2023-03-20T01:30:54;2.03;;;1.70;;
15297;SDS011;7750;48.796;9.026;2023-03-20T01:35:55;2.40;;;1.50;;
15297;SDS011;7750;48.796;9.026;2023-03-20T01:41:03;2.00;;;1.30;;
15297;SDS011;7750;48.796;9.026;2023-03-20T01:51:10;2.23;;;1.80;;
15297;SDS011;7750;48.796;9.026;2023-03-20T01:56:11;2.17;;;1.80;;
15297;SDS011;7750;48.796;9.026;2023-03-20T02:01:14;1.77;;;1.57;;
15297;SDS011;7750;48.796;9.026;2023-03-20T02:06:15;1.93;;;1.63;;
15297;SDS011;7750;48.796;9.026;2023-03-20T02:11:19;3.63;;;1.40;;
15297;SDS011;7750;48.796;9.026;2023-03-20T02:16:22;2.20;;;1.63;;
15297;SDS011;7750;48.796;9.026;2023-03-20T02:26:54;1.50;;;1.30;;
15297;SDS011;7750;48.796;9.026;2023-03-20T02:32:10;2.30;;;1.40;;
15297;SDS011;7750;48.796;9.026;2023-03-20T02:37:38;1.70;;;1.40;;
15297;SDS011;7750;48.796;9.026;2023-03-20T02:43:12;2.93;;;1.60;;
15297;SDS011;7750;48.796;9.026;2023-03-20T02:59:40;1.40;;;1.07;;
15297;SDS011;7750;48.796;9.026;2023-03-20T03:05:22;1.70;;;1.30;;
15297;SDS011;7750;48.796;9.026;2023-03-20T03:10:30;1.40;;;1.30;;
15297;SDS011;7750;48.796;9.026;2023-03-20T03:15:48;1.60;;;1.20;;
15297;SDS011;7750;48.796;9.026;2023-03-20T03:20:54;1.40;;;1.20;;
15297;SDS011;7750;48.796;9.026;2023-03-20T03:25:57;1.67;;;1.40;;
15297;SDS011;7750;48.796;9.026;2023-03-20T03:31:00;1.97;;;1.27;;
15297;SDS011;7750;48.796;9.026;2023-03-20T03:41:31;1.90;;;1.30;;
15297;SDS011;7750;48.796;9.026;2023-03-20T03:47:01;3.07;;;1.30;;
15297;SDS011;7750;48.796;9.026;2023-03-20T03:52:24;4.93;;;1.40;;
15297;SDS011;7750;48.796;9.026;2023-03-20T03:57:33;1.93;;;1.30;;
15297;SDS011;7750;48.796;9.026;2023-03-20T04:02:40;1.43;;;1.27;;
15297;SDS011;7750;48.796;9.026;2023-03-20T04:07:43;4.70;;;1.27;;
15297;SDS011;7750;48.796;9.026;2023-03-20T04:12:45;1.50;;;1.20;;
15297;SDS011;7750;48.796;9.026;2023-03-20T04:17:46;1.50;;;1.20;;
15297;SDS011;7750;48.796;9.026;2023-03-20T04:22:46;1.67;;;1.50;;
15297;SDS011;7750;48.796;9.026;2023-03-20T04:27:47;2.20;;;1.57;;
15297;SDS011;7750;48.796;9.026;2023-03-20T04:32:48;2.73;;;1.47;;
15297;SDS011;7750;48.796;9.026;2023-03-20T04:37:48;1.40;;;1.10;;
15297;SDS011;7750;48.796;9.026;2023-03-20T04:42:49;2.23;;;1.10;;
15297;SDS011;7750;48.796;9.026;2023-03-20T04:47:50;1.50;;;1.40;;
15297;SDS011;7750;48.796;9.026;2023-03-20T04:52:51;1.67;;;1.40;;
15297;SDS011;7750;48.796;9.026;2023-03-20T04:57:51;3.60;;;1.30;;
15297;SDS011;7750;48.796;9.026;2023-03-20T05:02:52;1.50;;;1.30;;
15297;SDS011;7750;48.796;9.026;2023-03-20T05:07:52;1.67;;;1.30;;
15297;SDS011;7750;48.796;9.026;2023-03-20T05:12:53;3.30;;;1.40;;
15297;SDS011;7750;48.796;9.026;2023-03-20T05:17:54;1.30;;;1.13;;
15297;SDS011;7750;48.796;9.026;2023-03-20T05:22:55;1.90;;;1.20;;
15297;SDS011;7750;48.796;9.026;2023-03-20T05:27:55;2.00;;;1.60;;
15297;SDS011;7750;48.796;9.026;2023-03-20T05:32:56;1.50;;;1.33;;
15297;SDS011;7750;48.796;9.026;2023-03-20T05:37:56;1.93;;;1.50;;
15297;SDS011;7750;48.796;9.026;2023-03-20T05:42:57;1.60;;;1.27;;
15297;SDS011;7750;48.796;9.026;2023-03-20T05:47:58;1.67;;;1.20;;
15297;SDS011;7750;48.796;9.026;2023-03-20T05:52:58;2.17;;;1.37;;
15297;SDS011;7750;48.796;9.026;2023-03-20T05:57:59;1.60;;;1.50;;
15297;SDS011;7750;48.796;9.026;2023-03-20T06:03:00;1.67;;;1.47;;
15297;SDS011;7750;48.796;9.026;2023-03-20T06:08:01;2.20;;;1.70;;
15297;SDS011;7750;48.796;9.026;2023-03-20T06:13:02;1.87;;;1.53;;
15297;SDS011;7750;48.796;9.026;2023-03-20T06:18:04;1.97;;;1.50;;
15297;SDS011;7750;48.796;9.026;2023-03-20T06:23:05;6.10;;;1.10;;
15297;SDS011;7750;48.796;9.026;2023-03-20T06:28:06;1.87;;;1.37;;
15297;SDS011;7750;48.796;9.026;2023-03-20T06:33:07;1.80;;;1.40;;
15297;SDS011;7750;48.796;9.026;2023-03-20T06:38:08;1.80;;;1.40;;
15297;SDS011;7750;48.796;9.026;2023-03-20T06:43:09;1.50;;;1.40;;
15297;SDS011;7750;48.796;9.026;2023-03-20T06:48:11;1.80;;;1.40;;
15297;SDS011;7750;48.796;9.026;2023-03-20T06:53:20;1.90;;;1.40;;
15297;SDS011;7750;48.796;9.026;2023-03-20T06:58:21;1.97;;;1.47;;
15297;SDS011;7750;48.796;9.026;2023-03-20T07:03:21;3.10;;;1.90;;
15297;SDS011;7750;48.796;9.026;2023-03-20T07:08:22;2.23;;;1.93;;
15297;SDS011;7750;48.796;9.026;2023-03-20T07:13:23;3.37;;;2.10;;
15297;SDS011;7750;48.796;9.026;2023-03-20T07:18:24;3.47;;;2.03;;
15297;SDS011;7750;48.796;9.026;2023-03-20T07:23:24;2.73;;;1.90;;
15297;SDS011;7750;48.796;9.026;2023-03-20T07:28:25;2.90;;;2.30;;
15297;SDS011;7750;48.796;9.026;2023-03-20T07:33:26;2.43;;;1.77;;
15297;SDS011;7750;48.796;9.026;2023-03-20T07:38:26;2.53;;;2.10;;
15297;SDS011;7750;48.796;9.026;2023-03-20T07:43:30;2.50;;;2.10;;
15297;SDS011;7750;48.796;9.026;2023-03-20T07:48:31;2.40;;;1.87;;
15297;SDS011;7750;48.796;9.026;2023-03-20T07:53:31;2.70;;;1.77;;
15297;SDS011;7750;48.796;9.026;2023-03-20T07:58:32;3.03;;;2.00;;
15297;SDS011;7750;48.796;9.026;2023-03-20T08:03:32;4.23;;;2.03;;
15297;SDS011;7750;48.796;9.026;2023-03-20T08:08:33;2.53;;;1.87;;
15297;SDS011;7750;48.796;9.026;2023-03-20T08:13:34;3.13;;;2.10;;
15297;SDS011;7750;48.796;9.026;2023-03-20T08:18:35;1.70;;;1.50;;
15297;SDS011;7750;48.796;9.026;2023-03-20T08:23:36;3.40;;;2.13;;
15297;SDS011;7750;48.796;9.026;2023-03-20T08:28:36;1.87;;;1.63;;
15297;SDS011;7750;48.796;9.026;2023-03-20T08:33:37;2.50;;;1.80;;
15297;SDS011;7750;48.796;9.026;2023-03-20T08:38:38;2.37;;;1.70;;
15297;SDS011;7750;48.796;9.026;2023-03-20T08:43:38;2.63;;;2.27;;
15297;SDS011;7750;48.796;9.026;2023-03-20T08:48:39;2.20;;;1.70;;
15297;SDS011;7750;48.796;9.026;2023-03-20T08:53:40;3.30;;;2.20;;
15297;SDS011;7750;48.796;9.026;2023-03-20T08:58:40;2.37;;;2.00;;
15297;SDS011;7750;48.796;9.026;2023-03-20T09:03:41;2.20;;;1.60;;
15297;SDS011;7750;48.796;9.026;2023-03-20T09:08:42;3.73;;;2.13;;
15297;SDS011;7750;48.796;9.026;2023-03-20T09:13:42;2.43;;;1.70;;
15297;SDS011;7750;48.796;9.026;2023-03-20T09:18:43;2.90;;;2.00;;
15297;SDS011;7750;48.796;9.026;2023-03-20T09:23:44;2.90;;;1.57;;
15297;SDS011;7750;48.796;9.026;2023-03-20T09:28:44;4.53;;;2.17;;
15297;SDS011;7750;48.796;9.026;2023-03-20T09:33:45;2.43;;;2.23;;
15297;SDS011;7750;48.796;9.026;2023-03-20T09:38:46;2.23;;;1.90;;
15297;SDS011;7750;48.796;9.026;2023-03-20T09:59:26;5.90;;;2.50;;
15297;SDS011;7750;48.796;9.026;2023-03-20T10:04:28;2.00;;;1.80;;
15297;SDS011;7750;48.796;9.026;2023-03-20T10:09:29;3.50;;;2.80;;
15297;SDS011;7750;48.796;9.026;2023-03-20T10:14:39;3.40;;;2.47;;
15297;SDS011;7750;48.796;9.026;2023-03-20T10:25:15;2.80;;;2.30;;
15297;SDS011;7750;48.796;9.026;2023-03-20T10:41:08;3.77;;;2.80;;
15297;SDS011;7750;48.796;9.026;2023-03-20T10:46:36;5.20;;;3.27;;
15297;SDS011;7750;48.796;9.026;2023-03-20T10:51:41;5.10;;;3.63;;
15297;SDS011;7750;48.796;9.026;2023-03-20T10:56:50;5.10;;;3.70;;
15297;SDS011;7750;48.796;9.026;2023-03-20T11:01:55;4.90;;;4.00;;
15297;SDS011;7750;48.796;9.026;2023-03-20T11:12:00;8.13;;;4.57;;
15297;SDS011;7750;48.796;9.026;2023-03-20T11:17:02;10.70;;;5.03;;
15297;SDS011;7750;48.796;9.026;2023-03-20T11:22:46;5.30;;;4.20;;
15297;SDS011;7750;48.796;9.026;2023-03-20T11:27:29;7.60;;;4.20;;
15297;SDS011;7750;48.796;9.026;2023-03-20T11:32:37;5.90;;;4.10;;
15297;SDS011;7750;48.796;9.026;2023-03-20T11:37:44;5.60;;;4.40;;
15297;SDS011;7750;48.796;9.026;2023-03-20T11:42:57;4.80;;;2.90;;
15297;SDS011;7750;48.796;9.026;2023-03-20T11:48:05;4.77;;;3.50;;
15297;SDS011;7750;48.796;9.026;2023-03-20T11:53:36;4.37;;;3.70;;
15297;SDS011;7750;48.796;9.026;2023-03-20T11:58:57;4.60;;;3.67;;
15297;SDS011;7750;48.796;9.026;2023-03-20T12:04:13;5.40;;;3.70;;
15297;SDS011;7750;48.796;9.026;2023-03-20T12:09:28;4.10;;;3.50;;
15297;SDS011;7750;48.796;9.026;2023-03-20T12:14:38;5.20;;;3.10;;
15297;SDS011;7750;48.796;9.026;2023-03-20T12:19:53;4.63;;;3.10;;
15297;SDS011;7750;48.796;9.026;2023-03-20T12:30:30;3.70;;;3.13;;
15297;SDS011;7750;48.796;9.026;2023-03-20T12:35:45;5.20;;;3.70;;
15297;SDS011;7750;48.796;9.026;2023-03-20T12:40:50;4.23;;;3.00;;
15297;SDS011;7750;48.796;9.026;2023-03-20T12:46:23;4.53;;;3.30;;
15297;SDS011;7750;48.796;9.026;2023-03-20T12:57:10;3.83;;;2.90;;
15297;SDS011;7750;48.796;9.026;2023-03-20T13:02:49;5.27;;;2.70;;
15297;SDS011;7750;48.796;9.026;2023-03-20T13:08:31;3.50;;;2.70;;
15297;SDS011;7750;48.796;9.026;2023-03-20T13:13:49;4.13;;;3.23;;
15297;SDS011;7750;48.796;9.026;2023-03-20T13:19:06;3.63;;;2.40;;
15297;SDS011;7750;48.796;9.026;2023-03-20T13:45:06;4.40;;;2.60;;
15297;SDS011;7750;48.796;9.026;2023-03-20T13:50:32;3.47;;;2.30;;
15297;SDS011;7750;48.796;9.026;2023-03-20T13:55:57;6.33;;;3.00;;
15297;SDS011;7750;48.796;9.026;2023-03-20T14:06:52;2.33;;;2.03;;
15297;SDS011;7750;48.796;9.026;2023-03-20T14:11:54;9.30;;;2.30;;
15297;SDS011;7750;48.796;9.026;2023-03-20T14:17:02;3.43;;;2.63;;
15297;SDS011;7750;48.796;9.026;2023-03-20T14:22:15;3.40;;;2.17;;
15297;SDS011;7750;48.796;9.026;2023-03-20T14:27:21;2.57;;;1.90;;
15297;SDS011;7750;48.796;9.026;2023-03-20T14:32:32;3.50;;;1.90;;
15297;SDS011;7750;48.796;9.026;2023-03-20T14:37:35;2.50;;;2.13;;
15297;SDS011;7750;48.796;9.026;2023-03-20T14:53:18;2.70;;;1.90;;
15297;SDS011;7750;48.796;9.026;2023-03-20T15:04:27;2.93;;;1.50;;
15297;SDS011;7750;48.796;9.026;2023-03-20T15:09:21;2.17;;;1.50;;
15297;SDS011;7750;48.796;9.026;2023-03-20T15:14:25;1.70;;;1.27;;
15297;SDS011;7750;48.796;9.026;2023-03-20T15:19:28;2.37;;;1.83;;
15297;SDS011;7750;48.796;9.026;2023-03-20T15:24:29;2.70;;;2.17;;
15297;SDS011;7750;48.796;9.026;2023-03-20T15:29:30;3.33;;;2.03;;
15297;SDS011;7750;48.796;9.026;2023-03-20T15:34:32;3.17;;;2.10;;
15297;SDS011;7750;48.796;9.026;2023-03-20T15:39:40;3.10;;;2.17;;
15297;SDS011;7750;48.796;9.026;2023-03-20T15:44:47;2.90;;;2.20;;
15297;SDS011;7750;48.796;9.026;2023-03-20T15:49:57;2.60;;;2.00;;
15297;SDS011;7750;48.796;9.026;2023-03-20T15:55:02;3.90;;;2.17;;
15297;SDS011;7750;48.796;9.026;2023-03-20T16:00:07;11.13;;;2.30;;
15297;SDS011;7750;48.796;9.026;2023-03-20T16:05:14;3.07;;;2.03;;
15297;SDS011;7750;48.796;9.026;2023-03-20T16:10:18;2.77;;;2.33;;
15297;SDS011;7750;48.796;9.026;2023-03-20T16:15:30;4.93;;;2.87;;
15297;SDS011;7750;48.796;9.026;2023-03-20T16:20:34;3.70;;;2.23;;
15297;SDS011;7750;48.796;9.026;2023-03-20T16:25:37;3.97;;;2.50;;
15297;SDS011;7750;48.796;9.026;2023-03-20T16:30:38;5.53;;;2.47;;
15297;SDS011;7750;48.796;9.026;2023-03-20T16:35:41;2.60;;;2.13;;
15297;SDS011;7750;48.796;9.026;2023-03-20T16:40:52;3.30;;;1.97;;
15297;SDS011;7750;48.796;9.026;2023-03-20T16:46:02;3.30;;;2.07;;
15297;SDS011;7750;48.796;9.026;2023-03-20T16:51:15;3.87;;;1.80;;
15297;SDS011;7750;48.796;9.026;2023-03-20T16:56:27;3.43;;;2.57;;
15297;SDS011;7750;48.796;9.026;2023-03-20T17:01:32;4.00;;;2.23;;
15297;SDS011;7750;48.796;9.026;2023-03-20T17:06:36;4.40;;;2.83;;
15297;SDS011;7750;48.796;9.026;2023-03-20T17:11:47;4.20;;;2.60;;
15297;SDS011;7750;48.796;9.026;2023-03-20T17:16:52;3.00;;;2.37;;
15297;SDS011;7750;48.796;9.026;2023-03-20T17:21:55;3.27;;;1.87;;
15297;SDS011;7750;48.796;9.026;2023-03-20T17:26:57;3.43;;;2.73;;
15297;SDS011;7750;48.796;9.026;2023-03-20T17:31:58;3.63;;;2.80;;
15297;SDS011;7750;48.796;9.026;2023-03-20T17:36:58;4.07;;;2.63;;
15297;SDS011;7750;48.796;9.026;2023-03-20T17:42:02;3.10;;;2.27;;
15297;SDS011;7750;48.796;9.026;2023-03-20T17:47:02;6.50;;;4.47;;
15297;SDS011;7750;48.796;9.026;2023-03-20T17:52:04;4.50;;;3.20;;
15297;SDS011;7750;48.796;9.026;2023-03-20T17:57:05;3.70;;;3.03;;
15297;SDS011;7750;48.796;9.026;2023-03-20T18:02:10;5.95;;;3.35;;
15297;SDS011;7750;48.796;9.026;2023-03-20T18:07:11;5.43;;;4.23;;
15297;SDS011;7750;48.796;9.026;2023-03-20T18:12:13;3.90;;;3.27;;
15297;SDS011;7750;48.796;9.026;2023-03-20T18:17:16;4.20;;;3.10;;
15297;SDS011;7750;48.796;9.026;2023-03-20T18:22:17;4.43;;;3.20;;
15297;SDS011;7750;48.796;9.026;2023-03-20T18:27:17;5.30;;;3.60;;
15297;SDS011;7750;48.796;9.026;2023-03-20T18:32:18;4.00;;;3.30;;
15297;SDS011;7750;48.796;9.026;2023-03-20T18:37:19;4.00;;;2.83;;
15297;SDS011;7750;48.796;9.026;2023-03-20T18:42:19;4.30;;;3.33;;
15297;SDS011;7750;48.796;9.026;2023-03-20T18:47:20;4.30;;;2.90;;
15297;SDS011;7750;48.796;9.026;2023-03-20T18:52:21;3.90;;;3.07;;
15297;SDS011;7750;48.796;9.026;2023-03-20T18:57:21;4.30;;;2.93;;
15297;SDS011;7750;48.796;9.026;2023-03-20T19:02:22;4.17;;;3.40;;
15297;SDS011;7750;48.796;9.026;2023-03-20T19:07:23;5.33;;;3.67;;
15297;SDS011;7750;48.796;9.026;2023-03-20T19:12:23;4.43;;;3.67;;
15297;SDS011;7750;48.796;9.026;2023-03-20T19:17:24;3.40;;;2.73;;
15297;SDS011;7750;48.796;9.026;2023-03-20T19:22:24;5.83;;;3.80;;
15297;SDS011;7750;48.796;9.026;2023-03-20T19:27:25;3.83;;;3.23;;
15297;SDS011;7750;48.796;9.026;2023-03-20T19:32:26;3.70;;;3.20;;
15297;SDS011;7750;48.796;9.026;2023-03-20T19:37:26;4.83;;;2.93;;
15297;SDS011;7750;48.796;9.026;2023-03-20T19:42:27;5.20;;;3.07;;
15297;SDS011;7750;48.796;9.026;2023-03-20T19:47:28;4.70;;;3.70;;
15297;SDS011;7750;48.796;9.026;2023-03-20T19:52:29;3.63;;;2.77;;
15297;SDS011;7750;48.796;9.026;2023-03-20T19:57:32;3.83;;;2.43;;
15297;SDS011;7750;48.796;9.026;2023-03-20T20:02:33;2.83;;;2.53;;
15297;SDS011;7750;48.796;9.026;2023-03-20T20:07:34;3.37;;;2.53;;
15297;SDS011;7750;48.796;9.026;2023-03-20T20:12:35;4.00;;;2.83;;
15297;SDS011;7750;48.796;9.026;2023-03-20T20:17:37;3.63;;;3.10;;
15297;SDS011;7750;48.796;9.026;2023-03-20T20:22:38;4.43;;;3.30;;
15297;SDS011;7750;48.796;9.026;2023-03-20T20:27:40;7.20;;;3.33;;
15297;SDS011;7750;48.796;9.026;2023-03-20T20:32:40;4.00;;;3.27;;
15297;SDS011;7750;48.796;9.026;2023-03-20T20:37:41;4.67;;;3.70;;
15297;SDS011;7750;48.796;9.026;2023-03-20T20:42:42;4.10;;;3.30;;
15297;SDS011;7750;48.796;9.026;2023-03-20T20:47:46;3.90;;;3.20;;
15297;SDS011;7750;48.796;9.026;2023-03-20T20:52:47;3.67;;;2.90;;
15297;SDS011;7750;48.796;9.026;2023-03-20T20:57:49;3.47;;;3.07;;
15297;SDS011;7750;48.796;9.026;2023-03-20T21:02:50;5.33;;;2.90;;
15297;SDS011;7750;48.796;9.026;2023-03-20T21:07:51;4.60;;;3.07;;
15297;SDS011;7750;48.796;9.026;2023-03-20T21:12:52;6.70;;;3.23;;
15297;SDS011;7750;48.796;9.026;2023-03-20T21:17:52;11.03;;;3.00;;
15297;SDS011;7750;48.796;9.026;2023-03-20T21:22:53;3.90;;;2.80;;
15297;SDS011;7750;48.796;9.026;2023-03-20T21:27:54;3.80;;;3.13;;
15297;SDS011;7750;48.796;9.026;2023-03-20T21:32:55;4.03;;;2.50;;
15297;SDS011;7750;48.796;9.026;2023-03-20T21:37:56;6.07;;;4.40;;
15297;SDS011;7750;48.796;9.026;2023-03-20T21:42:56;4.47;;;2.90;;
15297;SDS011;7750;48.796;9.026;2023-03-20T21:47:58;6.70;;;3.67;;
15297;SDS011;7750;48.796;9.026;2023-03-20T21:53:00;3.90;;;2.80;;
15297;SDS011;7750;48.796;9.026;2023-03-20T21:58:01;3.13;;;2.30;;
15297;SDS011;7750;48.796;9.026;2023-03-20T22:03:02;4.10;;;2.73;;
15297;SDS011;7750;48.796;9.026;2023-03-20T22:08:02;3.50;;;2.87;;
15297;SDS011;7750;48.796;9.026;2023-03-20T22:13:03;4.53;;;2.47;;
15297;SDS011;7750;48.796;9.026;2023-03-20T22:18:04;2.93;;;2.33;;
15297;SDS011;7750;48.796;9.026;2023-03-20T22:23:05;3.30;;;2.23;;
15297;SDS011;7750;48.796;9.026;2023-03-20T22:28:06;2.80;;;2.27;;
15297;SDS011;7750;48.796;9.026;2023-03-20T22:33:06;4.00;;;2.83;;
15297;SDS011;7750;48.796;9.026;2023-03-20T22:38:07;3.03;;;2.70;;
15297;SDS011;7750;48.796;9.026;2023-03-20T22:43:08;3.30;;;2.57;;
15297;SDS011;7750;48.796;9.026;2023-03-20T22:48:09;3.47;;;2.73;;
15297;SDS011;7750;48.796;9.026;2023-03-20T22:53:10;3.67;;;2.23;;
15297;SDS011;7750;48.796;9.026;2023-03-20T22:58:11;4.23;;;2.20;;
15297;SDS011;7750;48.796;9.026;2023-03-20T23:03:13;3.40;;;2.60;;
15297;SDS011;7750;48.796;9.026;2023-03-20T23:08:14;2.60;;;2.33;;
15297;SDS011;7750;48.796;9.026;2023-03-20T23:13:16;5.27;;;3.00;;
15297;SDS011;7750;48.796;9.026;2023-03-20T23:18:18;3.47;;;3.03;;
15297;SDS011;7750;48.796;9.026;2023-03-20T23:23:18;5.23;;;3.20;;
15297;SDS011;7750;48.796;9.026;2023-03-20T23:28:19;4.00;;;2.70;;
15297;SDS011;7750;48.796;9.026;2023-03-20T23:33:20;2.80;;;2.10;;
15297;SDS011;7750;48.796;9.026;2023-03-20T23:38:20;7.00;;;2.60;;
15297;SDS011;7750;48.796;9.026;2023-03-20T23:43:21;4.17;;;2.40;;
15297;SDS011;7750;48.796;9.026;2023-03-20T23:48:22;3.40;;;2.40;;
15297;SDS011;7750;48.796;9.026;2023-03-20T23:53:23;4.10;;;2.70;;
15297;SDS011;7750;48.796;9.026;2023-03-20T23:58:24;3.07;;;2.60;;
